createdAt,value
2022-08-27T00:00:22.323Z,20.01
2022-08-27T00:05:24.302Z,19.91
2022-08-27T00:10:27.785Z,19.95
2022-08-27T00:15:30.942Z,19.92
2022-08-27T00:20:32.857Z,19.94
2022-08-27T00:25:34.795Z,19.94
2022-08-27T00:30:36.523Z,19.96
2022-08-27T00:35:38.874Z,19.98
2022-08-27T00:40:42.383Z,20.02
2022-08-27T00:45:46.492Z,20.08
2022-08-27T00:50:55.354Z,20.18
2022-08-27T00:56:29.441Z,20.20
2022-08-27T01:01:35.921Z,20.03
2022-08-27T01:06:38.014Z,20.10
2022-08-27T01:11:40.028Z,20.24
2022-08-27T01:16:51.626Z,20.20
2022-08-27T01:22:34.584Z,20.25
2022-08-27T01:27:37.682Z,20.28
2022-08-27T01:32:41.190Z,20.24
2022-08-27T01:37:47.636Z,20.25
2022-08-27T01:42:56.603Z,20.32
2022-08-27T01:48:00.908Z,20.33
2022-08-27T01:53:24.451Z,20.35
2022-08-27T01:58:31.223Z,20.38
2022-08-27T02:03:37.220Z,20.30
2022-08-27T02:08:39.887Z,20.40
2022-08-27T02:13:41.761Z,20.41
2022-08-27T02:18:43.554Z,20.41
2022-08-27T02:23:46.300Z,20.38
2022-08-27T02:28:48.114Z,20.40
2022-08-27T02:33:50.515Z,20.36
2022-08-27T02:38:52.312Z,20.35
2022-08-27T02:43:54.059Z,20.37
2022-08-27T02:48:56.091Z,20.39
2022-08-27T02:53:57.879Z,20.34
2022-08-27T02:58:59.674Z,20.37
2022-08-27T03:04:02.245Z,20.32
2022-08-27T03:09:05.816Z,20.27
2022-08-27T03:14:08.438Z,20.23
2022-08-27T03:19:11.363Z,20.18
2022-08-27T03:24:14.739Z,20.21
2022-08-27T03:29:16.648Z,20.19
2022-08-27T03:34:19.953Z,20.19
2022-08-27T03:39:21.855Z,20.11
2022-08-27T03:44:24.963Z,20.19
2022-08-27T03:49:26.691Z,20.08
2022-08-27T03:54:28.463Z,20.05
2022-08-27T03:59:30.603Z,20.05
2022-08-27T04:04:32.737Z,20.02
2022-08-27T04:09:34.723Z,20.06
2022-08-27T04:14:36.480Z,20.00
2022-08-27T04:19:38.236Z,20.00
2022-08-27T04:24:40.766Z,20.04
2022-08-27T04:29:43.339Z,20.01
2022-08-27T04:34:45.059Z,20.04
2022-08-27T04:39:50.252Z,20.05
2022-08-27T04:44:53.439Z,20.07
2022-08-27T04:49:55.254Z,20.02
2022-08-27T04:54:59.026Z,20.01
2022-08-27T05:00:00.753Z,20.02
2022-08-27T05:05:02.556Z,20.02
2022-08-27T05:10:04.584Z,20.06
2022-08-27T05:15:07.210Z,20.08
2022-08-27T05:20:10.737Z,20.03
2022-08-27T05:25:12.676Z,20.14
2022-08-27T05:30:14.529Z,20.08
2022-08-27T05:35:16.429Z,20.20
2022-08-27T05:40:18.287Z,20.17
2022-08-27T05:45:20.059Z,20.14
2022-08-27T05:50:23.685Z,20.08
2022-08-27T05:55:25.588Z,20.21
2022-08-27T06:00:45.686Z,20.30
2022-08-27T06:05:48.228Z,20.13
2022-08-27T06:10:51.441Z,20.28
2022-08-27T06:16:03.450Z,20.33
2022-08-27T06:21:09.561Z,20.37
2022-08-27T06:26:18.677Z,20.39
2022-08-27T06:31:27.610Z,20.39
2022-08-27T06:36:31.390Z,20.40
2022-08-27T06:41:34.887Z,20.42
2022-08-27T06:46:38.798Z,20.42
2022-08-27T06:51:47.367Z,20.39
2022-08-27T06:56:50.085Z,20.37
2022-08-27T07:01:51.882Z,20.40
2022-08-27T07:06:53.807Z,20.40
2022-08-27T07:11:55.567Z,20.38
2022-08-27T07:16:57.382Z,20.42
2022-08-27T07:21:59.266Z,20.41
2022-08-27T07:27:01.341Z,20.34
2022-08-27T07:32:04.370Z,20.36
2022-08-27T07:37:06.349Z,20.32
2022-08-27T07:42:26.879Z,20.34
2022-08-27T07:47:28.695Z,20.40
2022-08-27T07:52:30.461Z,20.42
2022-08-27T07:57:32.855Z,20.44
2022-08-27T08:02:35.151Z,20.47
2022-08-27T08:07:38.509Z,20.51
2022-08-27T08:12:40.980Z,20.52
2022-08-27T08:17:42.937Z,20.56
2022-08-27T08:22:44.843Z,20.56
2022-08-27T08:27:48.071Z,20.65
2022-08-27T08:32:49.835Z,20.66
2022-08-27T08:37:52.027Z,20.76
2022-08-27T08:42:56.669Z,20.75
2022-08-27T08:48:19.362Z,20.87
2022-08-27T08:54:06.806Z,20.76
2022-08-27T08:59:23.836Z,20.85
2022-08-27T09:04:30.419Z,20.84
2022-08-27T09:10:01.184Z,21.05
2022-08-27T09:20:25.517Z,21.21
2022-08-27T09:25:36.580Z,21.21
2022-08-27T09:30:43.706Z,21.28
2022-08-27T09:35:47.145Z,21.48
2022-08-27T09:40:52.414Z,21.68
2022-08-27T09:46:26.983Z,22.03
2022-08-27T09:51:30.516Z,22.17
2022-08-27T09:56:35.064Z,22.31
2022-08-27T10:02:04.472Z,22.29
2022-08-27T10:07:43.434Z,22.40
2022-08-27T10:13:16.031Z,22.40
2022-08-27T10:18:56.369Z,22.50
2022-08-27T10:24:27.091Z,22.56
2022-08-27T10:30:20.279Z,22.67
2022-08-27T10:35:53.723Z,22.78
2022-08-27T10:41:33.500Z,22.95
2022-08-27T10:47:10.895Z,23.03
2022-08-27T10:53:00.875Z,23.08
2022-08-27T10:58:34.894Z,23.04
2022-08-27T11:03:51.942Z,22.97
2022-08-27T11:09:08.170Z,22.91
2022-08-27T11:14:50.737Z,22.86
2022-08-27T11:20:12.003Z,22.70
2022-08-27T11:25:53.453Z,22.68
2022-08-27T11:32:00.069Z,22.67
2022-08-27T11:37:34.825Z,22.84
2022-08-27T11:42:51.754Z,22.77
2022-08-27T11:47:58.610Z,22.66
2022-08-27T11:53:07.611Z,22.63
2022-08-27T11:58:18.505Z,22.58
2022-08-27T12:03:20.118Z,22.57
2022-08-27T12:08:21.851Z,22.62
2022-08-27T12:13:38.147Z,22.64
2022-08-27T12:19:20.161Z,22.72
2022-08-27T12:25:08.068Z,22.81
2022-08-27T12:30:52.025Z,22.96
2022-08-27T12:35:59.095Z,23.14
2022-08-27T12:41:09.051Z,23.38
2022-08-27T12:46:18.916Z,23.39
2022-08-27T12:51:40.016Z,23.32
2022-08-27T12:57:35.506Z,23.41
2022-08-27T13:03:15.547Z,23.34
2022-08-27T13:08:29.954Z,23.31
2022-08-27T13:13:31.668Z,23.82
2022-08-27T13:18:38.228Z,24.07
2022-08-27T13:24:02.567Z,24.08
2022-08-27T13:29:09.207Z,24.44
2022-08-27T13:34:23.998Z,24.48
2022-08-27T13:39:28.097Z,24.74
2022-08-27T13:45:03.722Z,24.78
2022-08-27T13:50:25.657Z,24.77
2022-08-27T13:55:30.429Z,24.53
2022-08-27T14:00:36.515Z,24.35
2022-08-27T14:05:48.556Z,24.20
2022-08-27T14:11:09.635Z,24.05
2022-08-27T14:16:31.631Z,23.92
2022-08-27T14:21:36.692Z,23.78
2022-08-27T14:26:38.428Z,23.67
2022-08-27T14:31:40.294Z,23.53
2022-08-27T14:36:43.795Z,23.34
2022-08-27T14:41:45.652Z,22.79
2022-08-27T14:46:50.348Z,22.45
2022-08-27T14:51:52.423Z,22.14
2022-08-27T14:56:55.331Z,21.90
2022-08-27T15:01:59.575Z,21.64
2022-08-27T15:07:01.639Z,21.47
2022-08-27T15:12:04.351Z,21.38
2022-08-27T15:17:10.982Z,21.47
2022-08-27T15:22:34.299Z,21.45
2022-08-27T15:27:39.104Z,21.35
2022-08-27T15:32:47.491Z,21.39
2022-08-27T15:37:49.828Z,21.44
2022-08-27T15:43:05.479Z,21.42
2022-08-27T15:48:07.372Z,21.47
2022-08-27T15:53:10.215Z,21.45
2022-08-27T15:58:12.969Z,21.45
2022-08-27T16:03:16.723Z,21.36
2022-08-27T16:08:18.446Z,21.35
2022-08-27T16:13:20.574Z,21.35
2022-08-27T16:18:32.394Z,21.33
2022-08-27T16:23:35.045Z,21.24
2022-08-27T16:28:36.772Z,21.23
2022-08-27T16:33:40.563Z,21.17
2022-08-27T16:38:42.275Z,21.14
2022-08-27T16:43:44.881Z,21.10
2022-08-27T16:49:04.982Z,21.04
2022-08-27T16:54:07.461Z,21.05
2022-08-27T16:59:13.085Z,20.98
2022-08-27T17:04:23.932Z,20.89
2022-08-27T17:09:30.214Z,20.87
2022-08-27T17:14:37.828Z,20.81
2022-08-27T17:19:40.189Z,20.87
2022-08-27T17:24:42.065Z,20.87
2022-08-27T17:29:43.756Z,20.84
2022-08-27T17:34:45.472Z,20.81
2022-08-27T17:40:10.852Z,20.79
2022-08-27T17:45:13.025Z,20.75
2022-08-27T17:50:14.853Z,20.76
2022-08-27T17:55:16.696Z,20.79
2022-08-27T18:00:18.422Z,20.69
2022-08-27T18:05:24.215Z,20.67
2022-08-27T18:10:36.462Z,20.57
2022-08-27T18:15:41.454Z,20.55
2022-08-27T18:20:43.235Z,20.48
2022-08-27T18:25:45.465Z,20.46
2022-08-27T18:30:48.088Z,20.35
2022-08-27T18:35:49.817Z,20.44
2022-08-27T18:40:55.316Z,20.29
2022-08-27T18:45:57.555Z,20.38
2022-08-27T18:51:03.910Z,20.34
2022-08-27T18:56:09.588Z,20.32
2022-08-27T19:01:20.122Z,20.31
2022-08-27T19:06:23.270Z,20.29
2022-08-27T19:11:25.296Z,20.29
2022-08-27T19:16:55.847Z,20.35
2022-08-27T19:21:59.405Z,20.35
2022-08-27T19:27:08.344Z,20.24
2022-08-27T19:32:10.594Z,20.25
2022-08-27T19:37:27.956Z,20.13
2022-08-27T19:42:30.439Z,20.14
2022-08-27T19:47:32.878Z,20.21
2022-08-27T19:52:34.757Z,20.15
2022-08-27T19:57:36.494Z,20.13
2022-08-27T20:02:38.411Z,20.12
2022-08-27T20:07:40.182Z,20.20
2022-08-27T20:12:41.981Z,20.11
2022-08-27T20:17:45.124Z,20.18
2022-08-27T20:22:47.801Z,20.17
2022-08-27T20:27:51.645Z,20.13
2022-08-27T20:32:53.551Z,20.09
2022-08-27T20:37:56.309Z,20.05
2022-08-27T20:42:59.074Z,20.06
2022-08-27T20:48:04.705Z,20.06
2022-08-27T20:53:06.597Z,20.11
2022-08-27T20:58:27.163Z,20.09
2022-08-27T21:03:29.213Z,20.08
2022-08-27T21:08:30.966Z,20.07
2022-08-27T21:13:32.677Z,20.12
2022-08-27T21:18:35.678Z,20.07
2022-08-27T21:23:39.360Z,20.08
2022-08-27T21:28:43.952Z,20.05
2022-08-27T21:33:45.719Z,20.01
2022-08-27T21:38:47.429Z,20.04
2022-08-27T21:43:50.580Z,20.01
2022-08-27T21:48:58.649Z,19.91
2022-08-27T21:54:01.045Z,19.91
2022-08-27T21:59:02.965Z,19.88
2022-08-27T22:04:05.161Z,19.92
2022-08-27T22:09:06.983Z,19.84
2022-08-27T22:14:08.800Z,19.81
2022-08-27T22:19:13.709Z,19.79
2022-08-27T22:24:15.806Z,19.76
2022-08-27T22:29:17.648Z,19.69
2022-08-27T22:34:19.370Z,19.68
2022-08-27T22:39:21.139Z,19.70
2022-08-27T22:44:25.195Z,19.63
2022-08-27T22:49:26.926Z,19.60
2022-08-27T22:54:28.645Z,19.61
2022-08-27T22:59:30.410Z,19.59
2022-08-27T23:04:53.699Z,19.54
2022-08-27T23:09:54.106Z,19.43
2022-08-27T23:14:55.865Z,19.35
2022-08-27T23:19:57.573Z,19.26
2022-08-27T23:25:17.574Z,19.22
2022-08-27T23:30:20.065Z,19.24
2022-08-27T23:35:25.641Z,19.12
2022-08-27T23:40:27.531Z,19.12
2022-08-27T23:45:30.199Z,19.08
2022-08-27T23:50:34.085Z,19.06
2022-08-27T23:55:37.706Z,19.07
